createdAt,value
2022-10-17T00:00:29.601Z,12.49
2022-10-17T00:02:57.526Z,12.48
2022-10-17T00:05:25.022Z,12.44
2022-10-17T00:07:52.459Z,12.43
2022-10-17T00:10:20.453Z,12.44
2022-10-17T00:12:46.989Z,12.42
2022-10-17T00:15:19.033Z,12.47
2022-10-17T00:17:45.577Z,12.47
2022-10-17T00:20:12.847Z,12.46
2022-10-17T00:22:39.524Z,12.48
2022-10-17T00:25:06.724Z,12.44
2022-10-17T00:27:40.954Z,12.45
2022-10-17T00:30:11.460Z,12.45
2022-10-17T00:32:38.356Z,12.49
2022-10-17T00:35:06.628Z,12.48
2022-10-17T00:37:33.551Z,12.51
2022-10-17T00:40:00.150Z,12.53
2022-10-17T00:42:27.678Z,12.55
2022-10-17T00:45:01.161Z,12.55
2022-10-17T00:47:28.974Z,12.50
2022-10-17T00:49:55.540Z,12.52
2022-10-17T00:52:25.808Z,12.39
2022-10-17T00:54:58.676Z,12.37
2022-10-17T00:57:27.903Z,12.45
2022-10-17T00:59:57.796Z,12.35
2022-10-17T01:02:24.271Z,12.41
2022-10-17T01:04:55.088Z,12.32
2022-10-17T01:07:22.463Z,12.38
2022-10-17T01:09:49.843Z,12.37
2022-10-17T01:12:36.618Z,12.37
2022-10-17T01:15:05.791Z,12.37
2022-10-17T01:17:47.459Z,12.37
2022-10-17T01:20:22.869Z,12.38
2022-10-17T01:23:37.600Z,12.40
2022-10-17T01:26:26.679Z,12.44
2022-10-17T01:28:59.010Z,12.52
2022-10-17T01:31:51.726Z,12.56
2022-10-17T01:34:24.923Z,12.44
2022-10-17T01:37:04.393Z,12.57
2022-10-17T01:39:45.354Z,12.56
2022-10-17T01:42:37.056Z,12.38
2022-10-17T01:45:09.296Z,12.62
2022-10-17T01:47:35.914Z,12.62
2022-10-17T01:50:13.041Z,12.66
2022-10-17T01:52:50.902Z,12.67
2022-10-17T01:55:22.616Z,12.69
2022-10-17T01:57:57.430Z,12.67
2022-10-17T02:00:27.015Z,12.62
2022-10-17T02:02:58.860Z,12.72
2022-10-17T02:05:31.372Z,12.73
2022-10-17T02:07:57.922Z,12.77
2022-10-17T02:10:42.963Z,12.79
2022-10-17T02:13:13.369Z,12.64
2022-10-17T02:15:46.773Z,12.81
2022-10-17T02:18:19.044Z,12.84
2022-10-17T02:21:08.468Z,12.86
2022-10-17T02:23:38.408Z,12.88
2022-10-17T02:26:19.309Z,12.84
2022-10-17T02:29:07.067Z,12.84
2022-10-17T02:31:41.372Z,12.80
2022-10-17T02:34:30.749Z,12.82
2022-10-17T02:37:02.008Z,12.80
2022-10-17T02:39:30.396Z,12.84
2022-10-17T02:41:59.018Z,12.62
2022-10-17T02:44:27.753Z,12.82
2022-10-17T02:47:03.539Z,12.82
2022-10-17T02:49:36.408Z,12.84
2022-10-17T02:52:21.497Z,12.85
2022-10-17T02:55:06.890Z,12.81
2022-10-17T02:57:40.896Z,12.87
2022-10-17T03:00:11.036Z,12.89
2022-10-17T03:02:40.396Z,12.88
2022-10-17T03:05:07.946Z,12.88
2022-10-17T03:07:34.324Z,12.89
2022-10-17T03:10:00.790Z,12.94
2022-10-17T03:12:27.469Z,12.97
2022-10-17T03:14:54.336Z,13.05
2022-10-17T03:17:20.744Z,13.05
2022-10-17T03:19:47.137Z,13.10
2022-10-17T03:22:13.475Z,13.09
2022-10-17T03:24:39.941Z,13.12
2022-10-17T03:27:06.402Z,13.24
2022-10-17T03:29:32.899Z,13.25
2022-10-17T03:31:59.275Z,13.25
2022-10-17T03:34:25.750Z,13.27
2022-10-17T03:36:52.164Z,13.27
2022-10-17T03:39:18.603Z,13.24
2022-10-17T03:41:45.084Z,13.36
2022-10-17T03:44:11.469Z,13.28
2022-10-17T03:46:38.651Z,13.29
2022-10-17T03:49:05.069Z,13.32
2022-10-17T03:51:33.512Z,13.32
2022-10-17T03:53:59.962Z,13.31
2022-10-17T03:56:26.616Z,13.32
2022-10-17T03:58:54.134Z,13.40
2022-10-17T04:01:21.472Z,13.35
2022-10-17T04:03:56.060Z,13.37
2022-10-17T04:06:22.777Z,13.34
2022-10-17T04:08:49.775Z,13.33
2022-10-17T04:11:19.529Z,13.32
2022-10-17T04:13:46.291Z,13.44
2022-10-17T04:16:15.737Z,13.49
2022-10-17T04:18:43.519Z,13.45
2022-10-17T04:21:10.757Z,13.48
2022-10-17T04:23:37.157Z,13.45
2022-10-17T04:26:04.744Z,13.37
2022-10-17T04:28:32.705Z,13.45
2022-10-17T04:31:05.615Z,13.37
2022-10-17T04:33:34.320Z,13.45
2022-10-17T04:36:02.464Z,13.47
2022-10-17T04:38:29.533Z,13.41
2022-10-17T04:41:03.172Z,13.33
2022-10-17T04:43:37.631Z,13.43
2022-10-17T04:46:08.545Z,13.40
2022-10-17T04:48:35.006Z,13.68
2022-10-17T04:51:07.964Z,13.64
2022-10-17T04:53:36.101Z,13.49
2022-10-17T04:56:09.276Z,13.34
2022-10-17T04:58:36.257Z,13.46
2022-10-17T05:01:11.366Z,13.47
2022-10-17T05:03:38.145Z,13.50
2022-10-17T05:06:10.897Z,13.38
2022-10-17T05:08:37.602Z,13.34
2022-10-17T05:11:05.806Z,13.42
2022-10-17T05:13:32.947Z,13.46
2022-10-17T05:16:00.940Z,13.44
2022-10-17T05:18:28.602Z,13.33
2022-10-17T05:20:55.117Z,13.17
2022-10-17T05:23:21.716Z,13.20
2022-10-17T05:25:48.099Z,13.36
2022-10-17T05:28:14.529Z,13.42
2022-10-17T05:30:40.940Z,13.33
2022-10-17T05:33:07.298Z,13.32
2022-10-17T05:35:33.686Z,13.34
2022-10-17T05:38:00.579Z,13.46
2022-10-17T05:40:27.166Z,13.42
2022-10-17T05:42:53.730Z,13.32
2022-10-17T05:45:20.198Z,13.31
2022-10-17T05:47:46.653Z,13.42
2022-10-17T05:50:13.115Z,13.35
2022-10-17T05:52:40.569Z,13.38
2022-10-17T05:55:08.950Z,13.39
2022-10-17T05:57:35.571Z,13.44
2022-10-17T06:00:02.213Z,13.50
2022-10-17T06:02:29.908Z,13.44
2022-10-17T06:04:56.511Z,13.49
2022-10-17T06:07:22.950Z,13.44
2022-10-17T06:09:49.385Z,13.50
2022-10-17T06:12:15.782Z,13.52
2022-10-17T06:14:42.180Z,13.56
2022-10-17T06:17:13.444Z,13.57
2022-10-17T06:19:42.253Z,13.64
2022-10-17T06:22:08.758Z,13.60
2022-10-17T06:24:35.196Z,13.63
2022-10-17T06:27:01.625Z,13.55
2022-10-17T06:29:28.054Z,13.59
2022-10-17T06:31:54.535Z,13.52
2022-10-17T06:34:21.140Z,13.74
2022-10-17T06:36:47.687Z,13.99
2022-10-17T06:39:14.349Z,14.11
2022-10-17T06:41:41.628Z,14.10
2022-10-17T06:44:11.163Z,14.00
2022-10-17T06:46:39.365Z,14.17
2022-10-17T06:49:06.600Z,14.19
2022-10-17T06:51:37.451Z,14.16
2022-10-17T06:54:04.649Z,14.17
2022-10-17T06:56:31.076Z,13.97
2022-10-17T06:58:57.637Z,13.78
2022-10-17T07:01:24.129Z,14.02
2022-10-17T07:03:50.654Z,14.34
2022-10-17T07:06:17.989Z,14.04
2022-10-17T07:08:45.501Z,14.12
2022-10-17T07:11:17.279Z,14.00
2022-10-17T07:13:44.041Z,14.06
2022-10-17T07:16:11.324Z,14.29
2022-10-17T07:18:37.739Z,14.31
2022-10-17T07:21:04.846Z,14.19
2022-10-17T07:23:31.515Z,14.12
2022-10-17T07:26:02.345Z,13.99
2022-10-17T07:28:29.077Z,14.04
2022-10-17T07:30:55.522Z,14.14
2022-10-17T07:33:21.923Z,13.96
2022-10-17T07:35:48.283Z,13.88
2022-10-17T07:38:14.651Z,13.74
2022-10-17T07:40:41.111Z,13.81
2022-10-17T07:43:07.514Z,13.78
2022-10-17T07:45:33.997Z,13.85
2022-10-17T07:48:00.423Z,13.87
2022-10-17T07:50:26.847Z,13.98
2022-10-17T07:52:53.247Z,14.17
2022-10-17T07:55:19.732Z,14.02
2022-10-17T07:57:46.155Z,13.97
2022-10-17T08:00:12.853Z,14.02
2022-10-17T08:02:39.609Z,13.99
2022-10-17T08:05:06.399Z,14.07
2022-10-17T08:07:32.820Z,13.89
2022-10-17T08:09:59.372Z,13.96
2022-10-17T08:12:26.164Z,14.14
2022-10-17T08:14:52.611Z,14.07
2022-10-17T08:17:19.003Z,13.94
2022-10-17T08:19:45.466Z,13.89
2022-10-17T08:22:11.858Z,13.88
2022-10-17T08:24:38.247Z,13.94
2022-10-17T08:27:11.274Z,14.01
2022-10-17T08:29:40.418Z,14.07
2022-10-17T08:32:09.568Z,14.05
2022-10-17T08:34:36.323Z,14.05
2022-10-17T08:37:02.736Z,13.91
2022-10-17T08:39:29.276Z,13.88
2022-10-17T08:42:22.297Z,13.90
2022-10-17T08:45:00.188Z,14.00
2022-10-17T08:47:33.977Z,13.95
2022-10-17T08:50:04.277Z,13.99
2022-10-17T08:52:41.545Z,14.00
2022-10-17T08:55:45.787Z,14.01
2022-10-17T08:58:22.343Z,13.91
2022-10-17T09:01:14.218Z,14.00
2022-10-17T09:04:02.296Z,14.00
2022-10-17T09:06:32.885Z,14.01
2022-10-17T09:09:29.273Z,13.95
2022-10-17T09:12:05.266Z,14.05
2022-10-17T09:14:44.546Z,14.06
2022-10-17T09:17:49.759Z,14.12
2022-10-17T09:20:26.047Z,14.07
2022-10-17T09:22:59.722Z,14.04
2022-10-17T09:25:27.565Z,14.02
2022-10-17T09:28:10.963Z,14.00
2022-10-17T09:30:49.217Z,14.07
2022-10-17T09:33:53.746Z,14.08
2022-10-17T09:36:29.898Z,14.11
2022-10-17T09:39:01.732Z,14.15
2022-10-17T09:41:51.544Z,14.19
2022-10-17T09:44:22.432Z,14.17
2022-10-17T09:46:55.019Z,14.18
2022-10-17T09:49:30.316Z,14.13
2022-10-17T09:51:56.821Z,14.19
2022-10-17T09:54:28.950Z,14.08
2022-10-17T09:57:09.893Z,14.14
2022-10-17T09:59:39.594Z,14.18
2022-10-17T10:02:23.686Z,14.19
2022-10-17T10:05:05.154Z,14.29
2022-10-17T10:07:36.206Z,14.29
2022-10-17T10:10:05.644Z,14.31
2022-10-17T10:12:37.398Z,14.30
2022-10-17T10:15:34.832Z,14.23
2022-10-17T10:18:01.327Z,14.12
2022-10-17T10:20:37.013Z,14.23
2022-10-17T10:23:06.080Z,14.23
2022-10-17T10:25:33.198Z,14.27
2022-10-17T10:28:01.833Z,14.22
2022-10-17T10:30:32.814Z,14.19
2022-10-17T10:33:01.619Z,14.20
2022-10-17T10:35:32.916Z,14.16
2022-10-17T10:38:02.055Z,14.10
2022-10-17T10:40:38.208Z,14.11
2022-10-17T10:43:06.446Z,14.02
2022-10-17T10:45:47.604Z,14.18
2022-10-17T10:48:30.268Z,14.13
2022-10-17T10:51:04.136Z,14.01
2022-10-17T10:53:51.779Z,14.09
2022-10-17T10:56:29.018Z,14.07
2022-10-17T10:59:03.029Z,14.00
2022-10-17T11:01:35.580Z,14.06
2022-10-17T11:04:32.117Z,14.09
2022-10-17T11:07:15.361Z,14.12
2022-10-17T11:09:50.900Z,14.10
2022-10-17T11:12:25.104Z,14.10
2022-10-17T11:15:10.002Z,14.11
2022-10-17T11:18:00.175Z,14.13
2022-10-17T11:20:44.876Z,14.16
2022-10-17T11:23:19.854Z,14.22
2022-10-17T11:25:49.285Z,14.23
2022-10-17T11:28:21.239Z,14.22
2022-10-17T11:31:07.084Z,14.22
2022-10-17T11:33:56.946Z,14.32
2022-10-17T11:36:30.677Z,14.31
2022-10-17T11:39:03.661Z,14.45
2022-10-17T11:41:37.810Z,14.43
2022-10-17T11:44:13.231Z,14.41
2022-10-17T11:46:41.648Z,14.49
2022-10-17T11:49:20.170Z,14.37
2022-10-17T11:52:44.416Z,14.55
2022-10-17T11:55:25.308Z,14.56
2022-10-17T11:58:01.997Z,14.52
2022-10-17T12:00:50.340Z,14.60
2022-10-17T12:03:31.774Z,14.58
2022-10-17T12:06:19.490Z,14.73
2022-10-17T12:08:51.453Z,14.74
2022-10-17T12:11:17.784Z,14.66
2022-10-17T12:13:49.784Z,14.66
2022-10-17T12:16:19.217Z,14.70
2022-10-17T12:19:10.607Z,14.55
2022-10-17T12:22:00.651Z,14.74
2022-10-17T12:24:38.936Z,14.73
2022-10-17T12:27:31.597Z,14.75
2022-10-17T12:30:00.541Z,14.79
2022-10-17T12:32:30.278Z,14.73
2022-10-17T12:35:03.543Z,14.75
2022-10-17T12:37:45.338Z,14.72
2022-10-17T12:40:36.656Z,14.77
2022-10-17T12:43:18.098Z,14.79
2022-10-17T12:45:46.377Z,14.77
2022-10-17T12:48:12.891Z,14.81
2022-10-17T12:54:16.418Z,14.85
2022-10-17T12:56:46.615Z,14.80
2022-10-17T12:59:17.654Z,14.90
2022-10-17T13:01:48.544Z,14.83
2022-10-17T13:04:16.177Z,14.89
2022-10-17T13:06:54.073Z,14.60
2022-10-17T13:09:31.383Z,14.92
2022-10-17T13:12:01.282Z,15.02
2022-10-17T13:14:28.536Z,15.04
2022-10-17T13:17:04.171Z,15.02
2022-10-17T13:19:42.759Z,14.92
2022-10-17T13:22:28.668Z,14.78
2022-10-17T13:25:16.829Z,14.97
2022-10-17T13:27:43.824Z,14.95
2022-10-17T13:30:32.340Z,14.85
2022-10-17T13:33:00.173Z,14.94
2022-10-17T13:35:58.994Z,14.84
2022-10-17T13:38:28.856Z,15.04
2022-10-17T13:41:02.049Z,15.05
2022-10-17T13:43:38.760Z,15.06
2022-10-17T13:46:25.401Z,15.08
2022-10-17T13:48:53.318Z,15.16
2022-10-17T13:51:20.153Z,15.15
2022-10-17T13:53:46.544Z,15.11
2022-10-17T13:56:29.795Z,15.14
2022-10-17T13:59:00.170Z,15.15
2022-10-17T14:01:29.306Z,15.10
2022-10-17T14:04:08.499Z,15.15
2022-10-17T14:06:45.023Z,15.10
2022-10-17T14:09:26.425Z,15.31
2022-10-17T14:12:20.591Z,15.25
2022-10-17T14:15:13.899Z,15.14
2022-10-17T14:17:38.543Z,15.30
2022-10-17T14:20:40.770Z,15.26
2022-10-17T14:23:21.035Z,15.25
2022-10-17T14:25:41.434Z,15.27
2022-10-17T14:28:09.521Z,15.29
2022-10-17T14:30:55.794Z,15.31
2022-10-17T14:33:27.776Z,15.37
2022-10-17T14:35:57.679Z,15.33
2022-10-17T14:38:25.214Z,15.28
2022-10-17T14:41:15.644Z,15.34
2022-10-17T14:43:57.217Z,15.33
2022-10-17T14:46:24.510Z,15.33
2022-10-17T14:49:02.178Z,15.27
2022-10-17T14:51:32.549Z,15.29
2022-10-17T14:54:26.516Z,15.20
2022-10-17T14:56:54.298Z,15.34
2022-10-17T14:59:51.629Z,15.33
2022-10-17T15:02:09.573Z,15.37
2022-10-17T15:04:35.949Z,15.37
2022-10-17T15:07:02.441Z,15.38
2022-10-17T15:09:29.057Z,15.33
2022-10-17T15:11:56.779Z,15.34
2022-10-17T15:14:23.256Z,15.35
2022-10-17T15:16:49.647Z,15.34
2022-10-17T15:19:16.193Z,15.30
2022-10-17T15:21:46.252Z,15.26
2022-10-17T15:24:14.932Z,15.28
2022-10-17T15:26:42.053Z,15.29
2022-10-17T15:29:14.725Z,15.18
2022-10-17T15:31:41.674Z,15.23
2022-10-17T15:34:08.141Z,15.25
2022-10-17T15:36:40.141Z,15.25
2022-10-17T15:39:06.580Z,15.22
2022-10-17T15:41:33.446Z,15.21
2022-10-17T15:44:00.930Z,15.22
2022-10-17T15:46:30.310Z,15.22
2022-10-17T15:49:01.359Z,15.22
2022-10-17T15:51:27.741Z,15.22
2022-10-17T15:53:54.146Z,15.23
2022-10-17T15:56:36.372Z,15.15
2022-10-17T15:59:13.875Z,15.20
2022-10-17T16:01:41.203Z,15.19
2022-10-17T16:04:12.783Z,15.15
2022-10-17T16:06:39.403Z,15.18
2022-10-17T16:09:05.769Z,15.16
2022-10-17T16:11:37.783Z,15.15
2022-10-17T16:14:07.427Z,15.15
2022-10-17T16:16:34.416Z,15.12
2022-10-17T16:19:01.509Z,15.10
2022-10-17T16:21:32.323Z,15.12
2022-10-17T16:23:59.233Z,15.07
2022-10-17T16:26:25.695Z,15.07
2022-10-17T16:28:52.599Z,15.04
2022-10-17T16:31:25.318Z,15.03
2022-10-17T16:33:53.902Z,15.06
2022-10-17T16:36:20.400Z,14.97
2022-10-17T16:38:48.069Z,15.02
2022-10-17T16:41:21.376Z,15.03
2022-10-17T16:43:52.637Z,15.02
2022-10-17T16:46:19.965Z,14.99
2022-10-17T16:48:46.615Z,15.02
2022-10-17T16:51:15.012Z,14.99
2022-10-17T16:53:44.752Z,14.98
2022-10-17T16:56:13.624Z,14.98
2022-10-17T16:58:41.545Z,14.96
2022-10-17T17:01:12.987Z,14.88
2022-10-17T17:03:41.792Z,14.96
2022-10-17T17:06:11.948Z,14.92
2022-10-17T17:08:38.521Z,14.89
2022-10-17T17:11:08.599Z,14.89
2022-10-17T17:13:35.226Z,14.89
2022-10-17T17:16:07.189Z,14.79
2022-10-17T17:18:34.769Z,14.86
2022-10-17T17:21:03.063Z,14.89
2022-10-17T17:23:30.664Z,14.89
2022-10-17T17:26:02.165Z,14.71
2022-10-17T17:28:29.035Z,14.89
2022-10-17T17:30:55.615Z,14.85
2022-10-17T17:33:23.927Z,14.86
2022-10-17T17:36:00.013Z,14.85
2022-10-17T17:38:29.767Z,14.83
2022-10-17T17:40:56.441Z,14.82
2022-10-17T17:43:23.264Z,14.82
2022-10-17T17:45:49.698Z,14.81
2022-10-17T17:48:16.212Z,14.80
2022-10-17T17:50:43.518Z,14.73
2022-10-17T17:53:11.767Z,14.79
2022-10-17T17:55:38.362Z,14.77
2022-10-17T17:58:05.184Z,14.75
2022-10-17T18:00:31.692Z,14.71
2022-10-17T18:02:58.130Z,14.63
2022-10-17T18:05:24.618Z,14.71
2022-10-17T18:07:51.155Z,14.70
2022-10-17T18:10:17.703Z,14.68
2022-10-17T18:12:44.151Z,14.70
2022-10-17T18:15:11.190Z,14.67
2022-10-17T18:17:38.459Z,14.68
2022-10-17T18:20:06.261Z,14.68
2022-10-17T18:22:33.102Z,14.68
2022-10-17T18:24:59.782Z,14.66
2022-10-17T18:27:26.233Z,14.62
2022-10-17T18:29:52.620Z,14.61
2022-10-17T18:32:19.610Z,14.59
2022-10-17T18:34:46.195Z,14.57
2022-10-17T18:37:12.735Z,14.56
2022-10-17T18:39:39.244Z,14.57
2022-10-17T18:42:06.743Z,14.51
2022-10-17T18:44:33.216Z,14.49
2022-10-17T18:47:03.097Z,14.47
2022-10-17T18:49:30.813Z,14.46
2022-10-17T18:51:57.292Z,14.44
2022-10-17T18:54:24.438Z,14.44
2022-10-17T18:56:53.158Z,14.45
2022-10-17T18:59:20.645Z,14.43
2022-10-17T19:01:47.727Z,14.44
2022-10-17T19:04:14.485Z,14.46
2022-10-17T19:06:41.626Z,14.41
2022-10-17T19:09:11.106Z,14.44
2022-10-17T19:11:38.282Z,14.41
2022-10-17T19:14:13.124Z,14.29
2022-10-17T19:16:48.908Z,14.31
2022-10-17T19:19:24.499Z,14.42
2022-10-17T19:21:51.609Z,14.45
2022-10-17T19:24:27.248Z,14.43
2022-10-17T19:26:57.254Z,14.43
2022-10-17T19:29:27.269Z,14.41
2022-10-17T19:34:25.251Z,14.42
2022-10-17T19:36:51.707Z,14.39
2022-10-17T19:39:20.170Z,14.37
2022-10-17T19:41:47.784Z,14.31
2022-10-17T19:44:14.636Z,14.34
2022-10-17T19:46:41.310Z,14.38
2022-10-17T19:49:07.750Z,14.36
2022-10-17T19:51:34.376Z,14.32
2022-10-17T19:54:01.426Z,14.32
2022-10-17T19:56:31.473Z,14.26
2022-10-17T19:58:58.635Z,14.28
2022-10-17T20:01:28.124Z,14.11
2022-10-17T20:03:55.739Z,14.25
2022-10-17T20:06:22.883Z,14.28
2022-10-17T20:08:50.204Z,14.27
2022-10-17T20:11:19.530Z,14.17
2022-10-17T20:13:46.067Z,14.20
2022-10-17T20:16:20.528Z,14.25
2022-10-17T20:18:48.422Z,14.23
2022-10-17T20:21:17.551Z,14.26
2022-10-17T20:23:45.545Z,14.25
2022-10-17T20:26:26.365Z,14.24
2022-10-17T20:29:04.571Z,14.17
2022-10-17T20:31:31.179Z,14.20
2022-10-17T20:33:59.011Z,14.20
2022-10-17T20:36:25.538Z,14.17
2022-10-17T20:38:56.352Z,14.19
2022-10-17T20:41:23.927Z,14.15
2022-10-17T20:43:54.723Z,14.12
2022-10-17T20:46:35.457Z,14.12
2022-10-17T20:49:03.016Z,14.12
2022-10-17T20:51:29.610Z,14.10
2022-10-17T20:56:26.107Z,14.03
2022-10-17T20:58:54.607Z,14.03
2022-10-17T21:01:22.364Z,14.00
2022-10-17T21:03:49.630Z,14.02
2022-10-17T21:06:16.834Z,13.99
2022-10-17T21:08:44.067Z,13.98
2022-10-17T21:11:16.570Z,13.95
2022-10-17T21:13:44.042Z,13.88
2022-10-17T21:16:16.539Z,13.90
2022-10-17T21:18:43.651Z,13.88
2022-10-17T21:21:16.331Z,13.83
2022-10-17T21:23:44.816Z,13.86
2022-10-17T21:26:12.704Z,13.83
2022-10-17T21:28:43.568Z,13.80
2022-10-17T21:31:23.173Z,13.82
2022-10-17T21:33:57.863Z,13.77
2022-10-17T21:36:26.008Z,13.81
2022-10-17T21:38:55.895Z,13.67
2022-10-17T21:41:24.938Z,13.65
2022-10-17T21:43:56.429Z,13.64
2022-10-17T21:46:23.904Z,13.70
2022-10-17T21:48:51.803Z,13.70
2022-10-17T21:51:21.551Z,13.69
2022-10-17T21:53:48.577Z,13.63
2022-10-17T21:56:17.478Z,13.52
2022-10-17T21:58:44.601Z,13.59
2022-10-17T22:01:13.180Z,13.59
2022-10-17T22:03:45.856Z,13.46
2022-10-17T22:06:38.530Z,13.54
2022-10-17T22:09:08.006Z,13.56
2022-10-17T22:11:35.523Z,13.55
2022-10-17T22:14:05.034Z,13.52
2022-10-17T22:16:31.699Z,13.54
2022-10-17T22:19:03.180Z,13.49
2022-10-17T22:21:32.538Z,13.43
2022-10-17T22:24:01.738Z,13.42
2022-10-17T22:26:30.256Z,13.40
2022-10-17T22:28:57.186Z,13.37
2022-10-17T22:31:23.729Z,13.30
2022-10-17T22:33:50.138Z,13.30
2022-10-17T22:36:16.587Z,13.29
2022-10-17T22:38:42.946Z,13.23
2022-10-17T22:41:09.313Z,13.22
2022-10-17T22:43:35.851Z,13.21
2022-10-17T22:46:04.019Z,13.19
2022-10-17T22:48:30.561Z,13.17
2022-10-17T22:50:58.292Z,13.17
2022-10-17T22:53:26.761Z,13.16
2022-10-17T22:55:55.451Z,13.02
2022-10-17T22:58:22.299Z,13.08
2022-10-17T23:00:49.853Z,13.09
2022-10-17T23:03:16.594Z,13.04
2022-10-17T23:05:43.090Z,13.00
2022-10-17T23:08:11.130Z,12.93
2022-10-17T23:10:37.619Z,12.97
2022-10-17T23:13:04.083Z,12.94
2022-10-17T23:15:32.146Z,12.88
2022-10-17T23:17:59.570Z,12.85
2022-10-17T23:20:26.417Z,12.81
2022-10-17T23:22:53.041Z,12.78
2022-10-17T23:25:19.476Z,12.82
2022-10-17T23:27:45.884Z,12.77
2022-10-17T23:30:12.429Z,12.74
2022-10-17T23:32:41.230Z,12.74
2022-10-17T23:35:08.631Z,12.71
2022-10-17T23:37:35.724Z,12.72
2022-10-17T23:40:02.516Z,12.66
2022-10-17T23:42:28.969Z,12.55
2022-10-17T23:44:55.379Z,12.53
2022-10-17T23:47:21.955Z,12.63
2022-10-17T23:49:48.370Z,12.62
2022-10-17T23:52:14.847Z,12.54
2022-10-17T23:57:08.621Z,12.49
2022-10-17T23:59:34.990Z,12.41
